createdAt,value
2023-03-06T00:00:39.766Z,100137.50
2023-03-06T00:03:06.612Z,100129.63
2023-03-06T00:05:33.197Z,100120.59
2023-03-06T00:07:59.687Z,100118.78
2023-03-06T00:10:29.546Z,100119.38
2023-03-06T00:12:58.762Z,100118.72
2023-03-06T00:15:26.240Z,100112.72
2023-03-06T00:17:53.210Z,100111.53
2023-03-06T00:20:20.482Z,100114.97
2023-03-06T00:22:47.013Z,100110.53
2023-03-06T00:25:16.480Z,100105.66
2023-03-06T00:27:43.636Z,100104.94
2023-03-06T00:30:13.903Z,100099.47
2023-03-06T00:32:42.627Z,100092.38
2023-03-06T00:35:09.317Z,100086.06
2023-03-06T00:37:35.752Z,100082.66
2023-03-06T00:40:05.080Z,100086.34
2023-03-06T00:42:31.811Z,100087.63
2023-03-06T00:44:58.209Z,100087.16
2023-03-06T00:47:24.622Z,100074.50
2023-03-06T00:49:51.699Z,100075.53
2023-03-06T00:52:18.703Z,100058.16
2023-03-06T00:54:45.616Z,100060.06
2023-03-06T00:57:12.085Z,100063.34
2023-03-06T00:59:38.522Z,100049.69
2023-03-06T01:02:05.087Z,100051.03
2023-03-06T01:04:31.493Z,100039.84
2023-03-06T01:06:57.912Z,100039.47
2023-03-06T01:09:24.631Z,100030.53
2023-03-06T01:11:53.594Z,100029.34
2023-03-06T01:14:20.117Z,100024.50
2023-03-06T01:16:47.396Z,100021.47
2023-03-06T01:19:15.294Z,100012.53
2023-03-06T01:21:41.715Z,100004.78
2023-03-06T01:24:08.323Z,99994.88
2023-03-06T01:26:34.970Z,99999.06
2023-03-06T01:29:02.061Z,99991.78
2023-03-06T01:31:28.952Z,99990.47
2023-03-06T01:33:55.398Z,99987.94
2023-03-06T01:36:21.838Z,99981.44
2023-03-06T01:38:48.266Z,99974.03
2023-03-06T01:41:15.876Z,99973.50
2023-03-06T01:43:44.888Z,99978.09
2023-03-06T01:46:30.255Z,99970.63
2023-03-06T01:48:58.939Z,99969.81
2023-03-06T01:51:30.251Z,99958.84
2023-03-06T01:53:57.557Z,99959.19
2023-03-06T01:56:25.099Z,99961.75
2023-03-06T01:58:51.943Z,99957.66
2023-03-06T02:01:19.223Z,99952.25
2023-03-06T02:03:47.325Z,99955.66
2023-03-06T02:06:13.743Z,99948.88
2023-03-06T02:08:40.191Z,99943.03
2023-03-06T02:11:24.592Z,99947.47
2023-03-06T02:13:53.575Z,99943.38
2023-03-06T02:16:30.962Z,99944.69
2023-03-06T02:19:31.168Z,99932.09
2023-03-06T02:21:57.753Z,99932.91
2023-03-06T02:24:34.452Z,99929.41
2023-03-06T02:27:04.141Z,99927.22
2023-03-06T02:29:31.465Z,99923.47
2023-03-06T02:32:01.058Z,99929.47
2023-03-06T02:34:27.793Z,99921.63
2023-03-06T02:37:02.172Z,99924.09
2023-03-06T02:39:31.729Z,99919.34
2023-03-06T02:41:58.136Z,99925.03
2023-03-06T02:44:27.732Z,99912.75
2023-03-06T02:46:54.152Z,99909.22
2023-03-06T02:49:20.549Z,99915.66
2023-03-06T02:51:47.061Z,99910.69
2023-03-06T02:54:13.536Z,99912.63
2023-03-06T02:56:42.174Z,99914.56
2023-03-06T02:59:08.590Z,99910.16
2023-03-06T03:01:35.006Z,99902.69
2023-03-06T03:04:02.618Z,99907.19
2023-03-06T03:06:29.530Z,99897.56
2023-03-06T03:08:55.973Z,99897.28
2023-03-06T03:11:22.510Z,99895.13
2023-03-06T03:13:48.993Z,99893.97
2023-03-06T03:16:20.355Z,99896.59
2023-03-06T03:18:50.993Z,99889.59
2023-03-06T03:21:19.998Z,99891.53
2023-03-06T03:23:47.760Z,99889.91
2023-03-06T03:26:18.523Z,99894.59
2023-03-06T03:28:52.147Z,99900.13
2023-03-06T03:31:20.773Z,99899.28
2023-03-06T03:33:47.309Z,99891.91
2023-03-06T03:36:13.871Z,99892.44
2023-03-06T03:38:44.405Z,99895.13
2023-03-06T03:41:11.449Z,99893.97
2023-03-06T03:43:38.002Z,99893.25
2023-03-06T03:46:04.629Z,99896.81
2023-03-06T03:48:31.288Z,99897.63
2023-03-06T03:51:12.840Z,99900.47
2023-03-06T03:53:44.451Z,99905.91
2023-03-06T03:56:13.237Z,99905.72
2023-03-06T03:58:47.997Z,99901.16
2023-03-06T04:01:14.548Z,99911.44
2023-03-06T04:03:41.387Z,99917.06
2023-03-06T04:06:09.344Z,99912.19
2023-03-06T04:08:36.012Z,99906.81
2023-03-06T04:11:03.208Z,99917.66
2023-03-06T04:13:31.153Z,99916.22
2023-03-06T04:15:59.667Z,99928.28
2023-03-06T04:18:28.428Z,99921.94
2023-03-06T04:20:58.705Z,99929.63
2023-03-06T04:23:25.335Z,99918.94
2023-03-06T04:25:51.822Z,99922.44
2023-03-06T04:28:18.604Z,99921.09
2023-03-06T04:30:45.320Z,99923.50
2023-03-06T04:33:12.367Z,99922.97
2023-03-06T04:35:39.212Z,99917.34
2023-03-06T04:38:11.241Z,99924.63
2023-03-06T04:40:37.871Z,99922.47
2023-03-06T04:43:05.044Z,99928.31
2023-03-06T04:45:33.186Z,99927.06
2023-03-06T04:48:00.183Z,99924.63
2023-03-06T04:50:28.224Z,99930.06
2023-03-06T04:52:54.677Z,99929.31
2023-03-06T04:55:21.106Z,99934.66
2023-03-06T04:57:48.047Z,99934.25
2023-03-06T05:00:21.021Z,99931.81
2023-03-06T05:02:48.189Z,99929.41
2023-03-06T05:05:15.815Z,99933.31
2023-03-06T05:07:43.154Z,99933.09
2023-03-06T05:10:17.064Z,99935.50
2023-03-06T05:12:43.981Z,99929.75
2023-03-06T05:15:12.139Z,99926.97
2023-03-06T05:17:38.893Z,99938.16
2023-03-06T05:20:07.989Z,99934.16
2023-03-06T05:22:34.547Z,99928.13
2023-03-06T05:25:01.300Z,99931.50
2023-03-06T05:27:28.382Z,99938.25
2023-03-06T05:29:54.808Z,99943.97
2023-03-06T05:32:21.888Z,99942.75
2023-03-06T05:34:49.094Z,99941.28
2023-03-06T05:37:15.528Z,99942.72
2023-03-06T05:39:42.499Z,99939.44
2023-03-06T05:42:08.901Z,99933.66
2023-03-06T05:44:35.752Z,99945.19
2023-03-06T05:47:02.459Z,99943.63
2023-03-06T05:49:33.677Z,99944.09
2023-03-06T05:52:00.689Z,99936.00
2023-03-06T05:54:27.074Z,99939.69
2023-03-06T05:56:53.552Z,99939.34
2023-03-06T05:59:19.978Z,99939.50
2023-03-06T06:01:46.430Z,99939.88
2023-03-06T06:04:13.013Z,99940.19
2023-03-06T06:06:39.530Z,99945.47
2023-03-06T06:09:05.956Z,99938.69
2023-03-06T06:11:32.368Z,99934.50
2023-03-06T06:13:58.783Z,99940.41
2023-03-06T06:16:25.175Z,99945.28
2023-03-06T06:18:51.572Z,99943.03
2023-03-06T06:21:18.029Z,99940.09
2023-03-06T06:23:44.487Z,99938.44
2023-03-06T06:26:11.033Z,99940.94
2023-03-06T06:28:37.466Z,99952.25
2023-03-06T06:31:12.258Z,99940.19
2023-03-06T06:33:40.252Z,99947.22
2023-03-06T06:36:15.346Z,99944.09
2023-03-06T06:38:41.761Z,99953.38
2023-03-06T06:43:54.539Z,99958.50
2023-03-06T06:46:59.243Z,99958.91
2023-03-06T06:49:07.643Z,99960.00
2023-03-06T06:51:34.221Z,99957.03
2023-03-06T06:54:00.999Z,99959.91
2023-03-06T06:56:27.515Z,99960.31
2023-03-06T06:59:01.357Z,99960.72
2023-03-06T07:01:36.878Z,99962.06
2023-03-06T07:04:03.376Z,99962.22
2023-03-06T07:06:29.804Z,99962.63
2023-03-06T07:08:57.512Z,99966.38
2023-03-06T07:11:23.966Z,99959.50
2023-03-06T07:13:50.397Z,99957.94
2023-03-06T07:16:19.693Z,99955.28
2023-03-06T07:18:46.127Z,99960.72
2023-03-06T07:21:12.697Z,99961.97
2023-03-06T07:23:39.601Z,99960.81
2023-03-06T07:26:06.364Z,99957.38
2023-03-06T07:28:46.189Z,99961.00
2023-03-06T07:31:17.902Z,99959.00
2023-03-06T07:33:44.507Z,99960.22
2023-03-06T07:36:12.835Z,99958.31
2023-03-06T07:38:40.201Z,99955.91
2023-03-06T07:41:09.561Z,99955.53
2023-03-06T07:43:35.959Z,99957.97
2023-03-06T07:46:06.131Z,99958.41
2023-03-06T07:48:33.095Z,99957.16
2023-03-06T07:51:02.648Z,99954.72
2023-03-06T07:53:29.694Z,99956.75
2023-03-06T07:55:56.420Z,99958.81
2023-03-06T07:58:23.657Z,99958.66
2023-03-06T08:00:50.080Z,99962.00
2023-03-06T08:03:16.924Z,99964.09
2023-03-06T08:05:44.746Z,99962.69
2023-03-06T08:08:11.877Z,99962.91
2023-03-06T08:10:38.288Z,99964.94
2023-03-06T08:13:04.759Z,99967.78
2023-03-06T08:15:31.190Z,99963.28
2023-03-06T08:17:57.585Z,99967.03
2023-03-06T08:20:23.979Z,99962.94
2023-03-06T08:22:50.363Z,99966.44
2023-03-06T08:25:16.801Z,99976.81
2023-03-06T08:27:43.333Z,99971.78
2023-03-06T08:30:10.248Z,99974.97
2023-03-06T08:32:37.704Z,99980.06
2023-03-06T08:35:05.401Z,99987.75
2023-03-06T08:37:31.911Z,99976.66
2023-03-06T08:39:58.669Z,99978.53
2023-03-06T08:42:25.130Z,99982.41
2023-03-06T08:44:51.522Z,99981.31
2023-03-06T08:47:17.958Z,99983.22
2023-03-06T08:49:44.353Z,99973.59
2023-03-06T08:52:11.142Z,99984.03
2023-03-06T08:54:38.642Z,99980.03
2023-03-06T08:57:05.044Z,99982.06
2023-03-06T08:59:31.441Z,99973.25
2023-03-06T09:01:57.885Z,99981.34
2023-03-06T09:04:24.322Z,99987.44
2023-03-06T09:06:50.836Z,99995.97
2023-03-06T09:09:17.228Z,99981.72
2023-03-06T09:11:43.608Z,99987.28
2023-03-06T09:14:10.069Z,99983.19
2023-03-06T09:16:36.522Z,99981.13
2023-03-06T09:19:02.985Z,99991.75
2023-03-06T09:21:29.524Z,99986.22
2023-03-06T09:23:55.914Z,99987.78
2023-03-06T09:26:28.012Z,99996.88
2023-03-06T09:28:59.410Z,99997.28
2023-03-06T09:31:25.814Z,99993.50
2023-03-06T09:33:52.232Z,99995.72
2023-03-06T09:36:21.401Z,99994.41
2023-03-06T09:38:49.749Z,99985.19
2023-03-06T09:41:26.212Z,99988.28
2023-03-06T09:44:15.032Z,99981.84
2023-03-06T09:47:14.446Z,99982.94
2023-03-06T09:50:04.656Z,99987.34
2023-03-06T09:52:52.091Z,99986.84
2023-03-06T09:55:21.596Z,99992.81
2023-03-06T09:58:21.396Z,99990.31
2023-03-06T10:00:59.514Z,99995.94
2023-03-06T10:03:53.564Z,99981.97
2023-03-06T10:06:29.763Z,100002.50
2023-03-06T10:09:18.593Z,100002.59
2023-03-06T10:11:52.593Z,100002.72
2023-03-06T10:14:42.752Z,99986.25
2023-03-06T10:17:18.836Z,99989.34
2023-03-06T10:19:47.603Z,99987.50
2023-03-06T10:22:27.954Z,99999.75
2023-03-06T10:25:03.238Z,99999.84
2023-03-06T10:27:47.549Z,100002.38
2023-03-06T10:30:56.383Z,99997.31
2023-03-06T10:33:47.553Z,100004.03
2023-03-06T10:36:19.296Z,99998.94
2023-03-06T10:38:48.503Z,99998.78
2023-03-06T10:41:32.684Z,100002.97
2023-03-06T10:44:05.268Z,100005.25
2023-03-06T10:46:43.583Z,100002.41
2023-03-06T10:49:23.301Z,99995.38
2023-03-06T10:52:02.706Z,99991.66
2023-03-06T10:54:33.208Z,100001.53
2023-03-06T10:57:18.764Z,99999.56
2023-03-06T10:59:55.889Z,99994.56
2023-03-06T11:02:39.374Z,99991.88
2023-03-06T11:05:17.614Z,99997.38
2023-03-06T11:08:02.312Z,99988.44
2023-03-06T11:10:31.788Z,99988.44
2023-03-06T11:13:06.147Z,99993.22
2023-03-06T11:15:32.586Z,99990.38
2023-03-06T11:18:05.220Z,99985.84
2023-03-06T11:20:52.908Z,99983.00
2023-03-06T11:23:40.798Z,99982.28
2023-03-06T11:26:20.095Z,99985.19
2023-03-06T11:28:55.791Z,99984.75
2023-03-06T11:31:25.304Z,99983.19
2023-03-06T11:33:59.214Z,99979.34
2023-03-06T11:36:33.560Z,99981.09
2023-03-06T11:38:59.991Z,99976.47
2023-03-06T11:41:45.639Z,99970.88
2023-03-06T11:44:32.146Z,99978.81
2023-03-06T11:47:25.891Z,99975.41
2023-03-06T11:50:13.887Z,99973.41
2023-03-06T11:52:48.696Z,99976.81
2023-03-06T11:55:38.970Z,99971.38
2023-03-06T11:58:37.024Z,99969.94
2023-03-06T12:01:20.352Z,99973.56
2023-03-06T12:03:58.949Z,99970.53
2023-03-06T12:06:39.324Z,99962.59
2023-03-06T12:09:11.934Z,99958.06
2023-03-06T12:12:09.706Z,99952.47
2023-03-06T12:14:54.841Z,99951.56
2023-03-06T12:17:51.454Z,99957.91
2023-03-06T12:20:46.058Z,99953.41
2023-03-06T12:23:44.420Z,99955.47
2023-03-06T12:26:52.956Z,99952.13
2023-03-06T12:29:56.261Z,99964.47
2023-03-06T12:32:52.035Z,99951.16
2023-03-06T12:35:43.302Z,99948.91
2023-03-06T12:38:26.002Z,99946.72
2023-03-06T12:41:17.184Z,99948.78
2023-03-06T12:44:14.233Z,99953.75
2023-03-06T12:46:49.467Z,99954.66
2023-03-06T12:49:32.799Z,99951.38
2023-03-06T12:52:00.912Z,99957.56
2023-03-06T12:54:29.994Z,99949.19
2023-03-06T12:56:59.765Z,99953.22
2023-03-06T12:59:48.464Z,99954.84
2023-03-06T13:02:36.290Z,99955.47
2023-03-06T13:05:21.534Z,99950.84
2023-03-06T13:08:07.262Z,99940.63
2023-03-06T13:10:36.264Z,99946.28
2023-03-06T13:13:23.668Z,99945.84
2023-03-06T13:16:13.648Z,99946.72
2023-03-06T13:18:43.110Z,99941.84
2023-03-06T13:21:41.734Z,99932.81
2023-03-06T13:24:21.044Z,99925.44
2023-03-06T13:27:02.743Z,99924.56
2023-03-06T13:29:38.025Z,99918.50
2023-03-06T13:32:04.393Z,99920.09
2023-03-06T13:34:38.643Z,99917.69
2023-03-06T13:37:13.981Z,99918.34
2023-03-06T13:39:55.417Z,99916.41
2023-03-06T13:42:36.446Z,99924.22
2023-03-06T13:45:07.484Z,99926.31
2023-03-06T13:47:59.042Z,99923.41
2023-03-06T13:50:32.912Z,99922.34
2023-03-06T13:53:11.323Z,99919.28
2023-03-06T13:55:52.410Z,99918.28
2023-03-06T13:58:36.963Z,99914.41
2023-03-06T14:01:39.219Z,99914.16
2023-03-06T14:04:28.029Z,99916.97
2023-03-06T14:07:06.622Z,99910.34
2023-03-06T14:09:42.082Z,99916.25
2023-03-06T14:12:18.723Z,99909.28
2023-03-06T14:14:52.691Z,99913.53
2023-03-06T14:17:28.911Z,99908.63
2023-03-06T14:19:58.320Z,99908.94
2023-03-06T14:22:24.874Z,99914.25
2023-03-06T14:24:56.349Z,99908.75
2023-03-06T14:27:43.970Z,99910.16
2023-03-06T14:30:15.037Z,99915.47
2023-03-06T14:32:41.844Z,99907.16
2023-03-06T14:35:20.569Z,99901.66
2023-03-06T14:37:53.132Z,99905.88
2023-03-06T14:40:25.997Z,99898.94
2023-03-06T14:43:10.712Z,99902.22
2023-03-06T14:45:37.474Z,99892.03
2023-03-06T14:48:06.200Z,99893.53
2023-03-06T14:50:34.222Z,99898.94
2023-03-06T14:53:04.148Z,99891.75
2023-03-06T14:55:33.487Z,99893.03
2023-03-06T14:58:08.101Z,99894.97
2023-03-06T15:00:40.047Z,99898.84
2023-03-06T15:03:14.434Z,99902.81
2023-03-06T15:05:44.187Z,99904.47
2023-03-06T15:08:17.070Z,99898.97
2023-03-06T15:10:55.684Z,99900.09
2023-03-06T15:13:24.687Z,99898.47
2023-03-06T15:16:04.681Z,99899.25
2023-03-06T15:18:35.373Z,99901.78
2023-03-06T15:21:18.752Z,99896.50
2023-03-06T15:23:47.599Z,99901.75
2023-03-06T15:26:51.676Z,99893.97
2023-03-06T15:29:23.077Z,99894.31
2023-03-06T15:31:49.736Z,99890.69
2023-03-06T15:34:23.257Z,99893.53
2023-03-06T15:36:54.253Z,99897.09
2023-03-06T15:39:37.614Z,99893.47
2023-03-06T15:42:25.780Z,99894.63
2023-03-06T15:45:03.284Z,99887.25
2023-03-06T15:47:29.800Z,99888.53
2023-03-06T15:49:56.949Z,99888.78
2023-03-06T15:52:23.604Z,99891.09
2023-03-06T15:54:50.156Z,99893.00
2023-03-06T15:57:24.190Z,99894.25
2023-03-06T15:59:51.255Z,99887.69
2023-03-06T16:02:20.330Z,99887.38
2023-03-06T16:04:47.014Z,99886.06
2023-03-06T16:07:14.396Z,99897.19
2023-03-06T16:09:42.041Z,99890.75
2023-03-06T16:12:17.677Z,99888.56
2023-03-06T16:14:45.271Z,99888.47
2023-03-06T16:17:12.808Z,99889.34
2023-03-06T16:19:39.421Z,99886.91
2023-03-06T16:22:06.015Z,99887.59
2023-03-06T16:24:32.464Z,99880.06
2023-03-06T16:27:01.168Z,99886.19
2023-03-06T16:29:29.138Z,99886.09
2023-03-06T16:31:57.325Z,99877.78
2023-03-06T16:34:24.026Z,99875.31
2023-03-06T16:36:50.958Z,99879.06
2023-03-06T16:39:19.807Z,99882.88
2023-03-06T16:41:46.391Z,99881.25
2023-03-06T16:44:13.478Z,99885.66
2023-03-06T16:46:42.375Z,99884.00
2023-03-06T16:49:15.430Z,99891.19
2023-03-06T16:51:41.851Z,99891.25
2023-03-06T16:54:08.251Z,99895.88
2023-03-06T16:56:34.702Z,99895.31
2023-03-06T16:59:01.133Z,99892.44
2023-03-06T17:01:27.698Z,99893.19
2023-03-06T17:03:54.659Z,99891.16
2023-03-06T17:06:22.560Z,99894.75
2023-03-06T17:08:50.371Z,99899.97
2023-03-06T17:11:17.785Z,99900.41
2023-03-06T17:13:44.200Z,99906.38
2023-03-06T17:16:16.320Z,99906.31
2023-03-06T17:18:44.583Z,99901.81
2023-03-06T17:21:12.235Z,99906.69
2023-03-06T17:23:38.694Z,99904.44
2023-03-06T17:26:09.574Z,99902.34
2023-03-06T17:28:37.359Z,99903.25
2023-03-06T17:31:13.019Z,99912.31
2023-03-06T17:33:39.789Z,99916.72
2023-03-06T17:36:06.683Z,99914.16
2023-03-06T17:38:33.070Z,99915.09
2023-03-06T17:41:07.569Z,99918.09
2023-03-06T17:43:34.232Z,99919.13
2023-03-06T17:46:12.306Z,99928.81
2023-03-06T17:48:39.667Z,99931.22
2023-03-06T17:51:07.428Z,99933.16
2023-03-06T17:53:34.084Z,99933.25
2023-03-06T17:56:03.496Z,99931.81
2023-03-06T17:58:29.890Z,99926.47
2023-03-06T18:00:56.325Z,99925.28
2023-03-06T18:03:22.760Z,99925.19
2023-03-06T18:06:05.046Z,99926.19
2023-03-06T18:08:32.181Z,99925.03
2023-03-06T18:11:04.144Z,99920.66
2023-03-06T18:13:34.740Z,99917.22
2023-03-06T18:16:01.892Z,99924.31
2023-03-06T18:18:28.462Z,99914.53
2023-03-06T18:20:55.348Z,99922.16
2023-03-06T18:23:21.889Z,99920.25
2023-03-06T18:25:48.429Z,99924.09
2023-03-06T18:28:14.854Z,99914.97
2023-03-06T18:30:42.267Z,99921.56
2023-03-06T18:33:10.131Z,99915.81
2023-03-06T18:35:37.105Z,99924.44
2023-03-06T18:38:03.612Z,99920.16
2023-03-06T18:40:30.044Z,99922.06
2023-03-06T18:42:56.441Z,99922.69
2023-03-06T18:45:22.833Z,99922.56
2023-03-06T18:47:49.280Z,99923.56
2023-03-06T18:50:17.484Z,99926.22
2023-03-06T18:52:44.150Z,99926.72
2023-03-06T18:55:10.617Z,99923.19
2023-03-06T18:57:37.017Z,99926.72
2023-03-06T19:00:05.754Z,99923.84
2023-03-06T19:02:32.213Z,99920.84
2023-03-06T19:04:58.630Z,99921.31
2023-03-06T19:07:25.213Z,99931.75
2023-03-06T19:09:51.612Z,99925.41
2023-03-06T19:12:18.129Z,99913.31
2023-03-06T19:14:44.902Z,99909.91
2023-03-06T19:17:11.320Z,99905.00
2023-03-06T19:19:37.745Z,99901.91
2023-03-06T19:22:04.171Z,99903.06
2023-03-06T19:24:30.596Z,99908.59
2023-03-06T19:26:57.028Z,99903.81
2023-03-06T19:29:23.469Z,99901.75
2023-03-06T19:31:52.069Z,99908.91
2023-03-06T19:34:18.688Z,99906.06
2023-03-06T19:36:45.130Z,99904.16
2023-03-06T19:39:11.513Z,99904.66
2023-03-06T19:41:37.891Z,99898.56
2023-03-06T19:44:05.784Z,99900.72
2023-03-06T19:46:32.828Z,99898.44
2023-03-06T19:49:01.499Z,99903.75
2023-03-06T19:51:28.592Z,99910.97
2023-03-06T19:53:56.599Z,99901.00
2023-03-06T19:56:28.935Z,99897.31
2023-03-06T19:58:55.969Z,99910.84
2023-03-06T20:01:25.070Z,99907.00
2023-03-06T20:03:58.680Z,99902.81
2023-03-06T20:06:28.357Z,99910.59
2023-03-06T20:08:54.936Z,99902.31
2023-03-06T20:11:27.131Z,99901.16
2023-03-06T20:13:53.612Z,99901.66
2023-03-06T20:16:20.301Z,99900.44
2023-03-06T20:18:46.700Z,99895.19
2023-03-06T20:21:13.869Z,99889.19
2023-03-06T20:23:40.982Z,99891.19
2023-03-06T20:26:10.195Z,99889.09
2023-03-06T20:28:39.067Z,99883.59
2023-03-06T20:31:07.809Z,99877.81
2023-03-06T20:33:34.256Z,99884.19
2023-03-06T20:36:00.729Z,99884.69
2023-03-06T20:38:27.135Z,99879.63
2023-03-06T20:40:55.824Z,99867.56
2023-03-06T20:43:22.229Z,99870.91
2023-03-06T20:46:02.645Z,99863.09
2023-03-06T20:48:29.414Z,99863.38
2023-03-06T20:51:08.015Z,99859.41
2023-03-06T20:53:37.363Z,99860.66
2023-03-06T20:56:03.997Z,99858.63
2023-03-06T20:58:31.791Z,99854.56
2023-03-06T21:00:59.950Z,99850.69
2023-03-06T21:03:27.850Z,99852.88
2023-03-06T21:05:54.248Z,99850.22
2023-03-06T21:08:20.663Z,99848.78
2023-03-06T21:10:47.269Z,99842.44
2023-03-06T21:13:14.308Z,99843.66
2023-03-06T21:15:42.234Z,99840.53
2023-03-06T21:18:09.709Z,99847.38
2023-03-06T21:20:39.833Z,99837.53
2023-03-06T21:23:06.814Z,99834.78
2023-03-06T21:25:33.783Z,99838.53
2023-03-06T21:28:00.515Z,99836.81
2023-03-06T21:30:27.754Z,99832.25
2023-03-06T21:32:54.257Z,99831.69
2023-03-06T21:35:20.845Z,99827.84
2023-03-06T21:37:47.253Z,99826.09
2023-03-06T21:40:14.255Z,99818.75
2023-03-06T21:42:41.402Z,99823.66
2023-03-06T21:45:08.195Z,99824.50
2023-03-06T21:47:38.492Z,99820.06
2023-03-06T21:50:10.287Z,99820.41
2023-03-06T21:52:37.078Z,99822.84
2023-03-06T21:55:03.945Z,99809.91
2023-03-06T22:02:21.272Z,99823.22
2023-03-06T22:04:53.608Z,99820.47
2023-03-06T22:07:20.739Z,99817.81
2023-03-06T22:09:47.332Z,99808.22
2023-03-06T22:12:13.820Z,99809.69
2023-03-06T22:14:40.244Z,99801.13
2023-03-06T22:17:06.664Z,99800.53
2023-03-06T22:19:33.059Z,99798.50
2023-03-06T22:21:59.448Z,99790.00
2023-03-06T22:24:25.841Z,99786.03
2023-03-06T22:26:52.308Z,99785.84
2023-03-06T22:29:18.745Z,99784.88
2023-03-06T22:31:45.205Z,99774.97
2023-03-06T22:34:11.668Z,99765.13
2023-03-06T22:36:38.065Z,99762.16
2023-03-06T22:39:04.483Z,99754.72
2023-03-06T22:41:31.635Z,99750.81
2023-03-06T22:44:00.410Z,99747.28
2023-03-06T22:46:27.398Z,99742.72
2023-03-06T22:48:59.773Z,99744.16
2023-03-06T22:51:27.627Z,99731.97
2023-03-06T22:53:54.173Z,99742.72
2023-03-06T22:56:22.355Z,99741.56
2023-03-06T22:58:48.756Z,99733.06
2023-03-06T23:01:24.970Z,99735.81
2023-03-06T23:03:56.826Z,99734.63
2023-03-06T23:06:34.965Z,99739.31
2023-03-06T23:09:07.860Z,99731.16
2023-03-06T23:11:53.024Z,99734.41
2023-03-06T23:14:38.203Z,99729.94
2023-03-06T23:17:23.315Z,99724.44
2023-03-06T23:20:10.156Z,99718.13
2023-03-06T23:22:55.481Z,99703.38
2023-03-06T23:25:40.210Z,99706.88
2023-03-06T23:28:07.349Z,99705.78
2023-03-06T23:30:33.744Z,99700.63
2023-03-06T23:33:00.155Z,99707.84
2023-03-06T23:35:26.612Z,99706.63
2023-03-06T23:37:53.041Z,99708.78
2023-03-06T23:40:20.192Z,99700.91
2023-03-06T23:42:46.602Z,99700.41
2023-03-06T23:45:12.995Z,99709.03
2023-03-06T23:47:39.656Z,99695.28
2023-03-06T23:50:06.401Z,99688.47
2023-03-06T23:52:32.810Z,99687.63
2023-03-06T23:54:59.183Z,99684.63
2023-03-06T23:57:25.603Z,99686.53
2023-03-06T23:59:52.017Z,99679.13
